Time;durP1;ratioP1;P1;durP2;ratioP2;P2;SDS_P1;SDS_P2;PMS_P1;PMS_P2;Temp;Humidity;BMP_temperature;BMP_pressure;BME280_temperature;BME280_humidity;BME280_pressure;Samples;Min_cycle;Max_cycle;Signal;HPM_P1;HPM_P2
2021/10/07 00:00:08;;;;;;;4.27;2.50;;;18.50;50.30;;;;;;4996841;28;20521;-89
2021/10/07 00:02:35;;;;;;;3.93;2.40;;;18.60;50.40;;;;;;4996852;28;20644;-89
2021/10/07 00:05:03;;;;;;;5.70;2.40;;;18.50;48.90;;;;;;4997001;28;20513;-89
2021/10/07 00:07:30;;;;;;;6.03;2.63;;;18.30;48.90;;;;;;4996900;28;20443;-89
2021/10/07 00:09:57;;;;;;;4.00;2.50;;;18.30;49.40;;;;;;5031709;28;20540;-89
2021/10/07 00:12:24;;;;;;;4.60;2.50;;;18.20;49.70;;;;;;5018550;28;20477;-89
2021/10/07 00:14:52;;;;;;;4.83;2.53;;;18.10;49.20;;;;;;5033872;28;20599;-89
2021/10/07 00:17:19;;;;;;;4.80;2.53;;;18.20;48.70;;;;;;5000446;28;21058;-89
2021/10/07 00:19:46;;;;;;;9.90;2.40;;;18.00;48.20;;;;;;5014426;28;20478;-89
2021/10/07 00:22:13;;;;;;;8.70;4.23;;;17.70;49.30;;;;;;5034149;28;20899;-89
2021/10/07 00:24:40;;;;;;;6.53;2.80;;;17.50;50.40;;;;;;5001078;28;20478;-89
2021/10/07 00:27:08;;;;;;;5.50;2.87;;;17.30;48.80;;;;;;5013073;28;20516;-89
2021/10/07 00:29:41;;;;;;;8.33;2.93;;;17.10;50.60;;;;;;5015912;28;20446;-89
2021/10/07 00:32:13;;;;;;;4.57;2.50;;;17.10;50.60;;;;;;5016484;28;20884;-89
2021/10/07 00:39:02;;;;;;;3.30;2.40;;;17.20;50.40;;;;;;4979367;28;20478;-89
2021/10/07 00:40:16;;;;;;;3.30;2.33;;;17.20;50.90;;;;;;5000021;28;20501;-89
2021/10/07 00:42:43;;;;;;;4.03;2.87;;;17.20;50.90;;;;;;5016239;28;20512;-89
2021/10/07 00:45:13;;;;;;;4.27;2.57;;;17.40;50.50;;;;;;5020452;28;20456;-89
2021/10/07 00:47:41;;;;;;;4.43;2.60;;;17.40;48.80;;;;;;5032270;28;20454;-89
2021/10/07 00:50:09;;;;;;;5.37;2.90;;;17.20;49.00;;;;;;5015530;28;20925;-89
2021/10/07 00:52:36;;;;;;;5.27;2.43;;;17.40;50.70;;;;;;5011508;28;20463;-89
2021/10/07 00:55:04;;;;;;;6.10;2.30;;;17.60;48.50;;;;;;4998857;28;20943;-89
2021/10/07 00:57:31;;;;;;;6.57;2.53;;;17.70;51.60;;;;;;5019447;28;20484;-89
2021/10/07 00:59:58;;;;;;;4.43;2.90;;;18.20;51.40;;;;;;5031026;28;20477;-89
2021/10/07 01:02:25;;;;;;;4.47;2.13;;;18.30;50.20;;;;;;5015058;28;20478;-89
2021/10/07 01:04:54;;;;;;;3.13;2.43;;;18.40;51.50;;;;;;5015242;28;20533;-89
2021/10/07 01:07:22;;;;;;;2.80;2.50;;;18.50;49.80;;;;;;5015319;28;20438;-89
2021/10/07 01:09:49;;;;;;;3.07;2.40;;;18.20;49.20;;;;;;5011494;28;20518;-89
2021/10/07 01:12:16;;;;;;;6.73;3.40;;;17.70;47.90;;;;;;5003165;28;20527;-89
2021/10/07 01:14:47;;;;;;;3.37;2.60;;;17.40;50.00;;;;;;5041063;28;20415;-88
2021/10/07 01:17:15;;;;;;;6.00;2.70;;;17.40;48.80;;;;;;5017393;28;20502;-89
2021/10/07 01:19:45;;;;;;;5.83;2.83;;;17.30;50.30;;;;;;5018627;28;20474;-89
2021/10/07 01:22:12;;;;;;;6.73;2.40;;;17.20;49.10;;;;;;5018277;28;20422;-88
2021/10/07 01:24:39;;;;;;;4.67;2.70;;;17.30;48.90;;;;;;5018989;28;20443;-88
2021/10/07 01:27:06;;;;;;;4.97;2.70;;;17.00;50.60;;;;;;5012170;28;20451;-88
2021/10/07 01:29:33;;;;;;;6.20;2.70;;;16.80;48.80;;;;;;4999412;28;21012;-89
2021/10/07 01:32:01;;;;;;;4.67;2.87;;;16.80;49.80;;;;;;5012072;28;21012;-89
2021/10/07 01:34:30;;;;;;;6.77;2.67;;;16.70;48.80;;;;;;5013751;28;20447;-89
2021/10/07 01:36:59;;;;;;;3.37;2.40;;;16.80;52.70;;;;;;5018152;28;20482;-88
2021/10/07 01:39:26;;;;;;;5.10;2.57;;;16.90;51.50;;;;;;5018045;28;20553;-87
2021/10/07 01:41:54;;;;;;;6.80;3.00;;;17.10;48.80;;;;;;5017381;28;20449;-89
2021/10/07 01:44:23;;;;;;;5.37;2.47;;;17.00;49.40;;;;;;4997215;28;20490;-89
2021/10/07 01:46:51;;;;;;;5.57;2.70;;;16.90;50.20;;;;;;5002656;28;20476;-89
2021/10/07 01:49:18;;;;;;;6.20;2.60;;;17.20;50.30;;;;;;5035415;28;20480;-89
2021/10/07 01:51:45;;;;;;;6.77;2.90;;;17.40;50.60;;;;;;5034026;28;20597;-89
2021/10/07 01:54:13;;;;;;;3.97;2.47;;;17.30;48.10;;;;;;5029838;28;20479;-89
2021/10/07 01:56:41;;;;;;;3.60;2.37;;;17.30;50.50;;;;;;5014361;28;20521;-89
2021/10/07 01:59:08;;;;;;;6.20;2.60;;;17.40;49.40;;;;;;5014627;28;20472;-89
2021/10/07 02:01:36;;;;;;;6.23;2.43;;;17.60;50.80;;;;;;5016543;28;21029;-89
2021/10/07 02:04:05;;;;;;;4.13;2.50;;;17.60;49.80;;;;;;5024298;28;20450;-89
2021/10/07 02:06:32;;;;;;;5.87;2.93;;;17.90;51.10;;;;;;5026144;28;20533;-89
2021/10/07 02:08:59;;;;;;;5.40;2.47;;;18.00;49.30;;;;;;5012801;28;20483;-89
2021/10/07 02:11:27;;;;;;;2.80;2.30;;;18.10;50.40;;;;;;4999712;28;20665;-89
2021/10/07 02:13:54;;;;;;;8.00;3.00;;;18.60;51.30;;;;;;5015841;28;20546;-89
2021/10/07 02:16:21;;;;;;;6.67;2.67;;;18.80;50.60;;;;;;5019052;28;20472;-89
2021/10/07 02:18:48;;;;;;;4.00;2.70;;;18.60;47.50;;;;;;5035097;28;20450;-89
2021/10/07 02:21:15;;;;;;;4.87;2.80;;;18.50;49.50;;;;;;5030864;28;21066;-89
2021/10/07 02:23:42;;;;;;;2.77;2.13;;;18.60;50.40;;;;;;5014607;28;20525;-89
2021/10/07 02:26:09;;;;;;;4.63;2.73;;;18.70;49.20;;;;;;5018019;28;20492;-89
2021/10/07 02:28:37;;;;;;;6.03;2.60;;;18.60;49.20;;;;;;5034003;28;20433;-89
2021/10/07 02:31:04;;;;;;;4.83;2.83;;;18.50;48.10;;;;;;5030380;28;20446;-89
2021/10/07 02:33:31;;;;;;;6.10;2.80;;;18.50;48.80;;;;;;5011385;28;20501;-89
2021/10/07 02:35:58;;;;;;;6.73;2.80;;;18.30;49.00;;;;;;4994841;28;20498;-87
2021/10/07 02:38:25;;;;;;;7.23;2.87;;;18.30;49.10;;;;;;4995045;28;20896;-89
2021/10/07 02:40:52;;;;;;;12.23;2.87;;;18.00;49.30;;;;;;4994364;28;20471;-89
2021/10/07 02:43:19;;;;;;;3.90;2.80;;;17.90;49.10;;;;;;4994395;28;20533;-89
2021/10/07 02:45:48;;;;;;;5.70;2.70;;;17.80;46.90;;;;;;4994062;28;20543;-89
2021/10/07 02:48:14;;;;;;;3.43;2.40;;;17.70;49.10;;;;;;4993765;28;20885;-88
2021/10/07 02:50:41;;;;;;;4.03;2.60;;;18.00;50.40;;;;;;4994813;28;20471;-88
2021/10/07 02:53:08;;;;;;;8.10;2.50;;;17.80;47.60;;;;;;4994725;28;20792;-89
2021/10/07 02:55:35;;;;;;;6.80;2.90;;;17.70;48.40;;;;;;4997921;28;20463;-89
2021/10/07 02:58:02;;;;;;;10.23;3.00;;;17.60;49.10;;;;;;5014544;28;20581;-88
2021/10/07 03:00:29;;;;;;;3.83;2.90;;;17.70;50.10;;;;;;5014086;28;20684;-89
2021/10/07 03:02:57;;;;;;;7.63;3.50;;;17.90;49.70;;;;;;5014686;28;20446;-88
2021/10/07 03:05:24;;;;;;;6.50;2.90;;;17.90;49.80;;;;;;5029058;28;20438;-88
2021/10/07 03:07:51;;;;;;;5.87;2.87;;;17.80;48.40;;;;;;5039563;28;21001;-89
2021/10/07 03:10:20;;;;;;;10.50;3.13;;;17.30;48.30;;;;;;5015758;28;20550;-89
2021/10/07 03:12:46;;;;;;;10.20;3.20;;;17.10;49.00;;;;;;5016235;28;20478;-89
2021/10/07 03:15:13;;;;;;;3.57;2.70;;;17.20;48.70;;;;;;5000650;28;20431;-89
2021/10/07 03:17:40;;;;;;;6.43;2.57;;;17.00;48.10;;;;;;5033169;28;21086;-89
2021/10/07 03:20:10;;;;;;;6.20;3.07;;;17.10;50.80;;;;;;5029664;28;20560;-89
2021/10/07 03:22:36;;;;;;;5.70;2.73;;;17.10;49.80;;;;;;4994382;28;20550;-89
2021/10/07 03:25:04;;;;;;;5.30;2.70;;;17.10;50.60;;;;;;4993961;28;20534;-89
2021/10/07 03:27:31;;;;;;;6.60;2.37;;;17.50;52.10;;;;;;4994003;28;20511;-89
2021/10/07 03:29:58;;;;;;;4.33;2.87;;;17.80;52.10;;;;;;5039784;28;20537;-88
2021/10/07 03:32:26;;;;;;;5.23;2.70;;;18.10;51.30;;;;;;5056357;28;20429;-88
2021/10/07 03:34:53;;;;;;;5.13;2.40;;;18.30;51.20;;;;;;5040527;28;20770;-87
2021/10/07 03:37:21;;;;;;;3.27;2.50;;;18.50;50.70;;;;;;5038068;28;20489;-86
2021/10/07 03:39:48;;;;;;;5.27;2.80;;;18.60;50.40;;;;;;5059122;28;20488;-87
2021/10/07 03:42:15;;;;;;;7.00;2.37;;;18.70;49.30;;;;;;5060534;28;20464;-87
2021/10/07 03:44:42;;;;;;;5.47;3.00;;;18.80;50.60;;;;;;5056355;28;20926;-87
2021/10/07 03:47:09;;;;;;;7.83;2.50;;;18.90;48.20;;;;;;5037217;28;20804;-87
2021/10/07 03:49:36;;;;;;;7.10;2.63;;;18.90;48.60;;;;;;4997301;28;20553;-88
2021/10/07 03:52:04;;;;;;;4.53;2.57;;;18.70;49.60;;;;;;5037028;28;20444;-88
2021/10/07 03:54:32;;;;;;;2.90;2.30;;;18.90;49.30;;;;;;5017459;28;20477;-87
2021/10/07 03:56:59;;;;;;;3.23;2.40;;;18.60;48.30;;;;;;5035805;28;20571;-88
2021/10/07 03:59:26;;;;;;;9.50;3.07;;;18.30;48.20;;;;;;5017604;28;20500;-87
2021/10/07 04:01:53;;;;;;;6.13;2.70;;;17.90;47.40;;;;;;5016938;28;20466;-88
2021/10/07 04:04:20;;;;;;;4.30;2.50;;;17.50;48.70;;;;;;4998678;28;20469;-87
2021/10/07 04:06:46;;;;;;;4.30;2.37;;;17.40;47.80;;;;;;4997018;28;20482;-88
2021/10/07 04:09:13;;;;;;;3.97;2.70;;;17.20;49.20;;;;;;4996539;28;20872;-88
2021/10/07 04:11:42;;;;;;;2.60;2.37;;;17.30;50.40;;;;;;4996731;28;20509;-88
2021/10/07 04:14:09;;;;;;;4.40;2.70;;;17.40;51.00;;;;;;5031916;28;20536;-88
2021/10/07 04:16:35;;;;;;;6.43;2.43;;;17.40;49.30;;;;;;5002296;28;20979;-88
2021/10/07 04:19:02;;;;;;;3.83;2.50;;;17.80;51.20;;;;;;4996300;28;20485;-89
2021/10/07 04:21:29;;;;;;;4.17;2.40;;;18.00;49.10;;;;;;5031661;28;20476;-88
2021/10/07 04:23:56;;;;;;;7.40;2.67;;;18.10;49.60;;;;;;5019169;28;20504;-88
2021/10/07 04:26:23;;;;;;;10.83;2.67;;;18.00;49.00;;;;;;5016737;28;20820;-88
2021/10/07 04:28:51;;;;;;;4.57;3.10;;;17.60;50.30;;;;;;5033319;28;20556;-88
2021/10/07 04:31:18;;;;;;;4.20;2.73;;;17.70;48.90;;;;;;5019358;28;20485;-88
2021/10/07 04:33:45;;;;;;;3.57;2.20;;;17.60;49.90;;;;;;5016658;28;20533;-88
2021/10/07 04:36:13;;;;;;;5.30;2.60;;;17.80;50.90;;;;;;5016305;28;20509;-89
2021/10/07 04:38:40;;;;;;;4.10;2.50;;;18.10;50.80;;;;;;5016114;28;20473;-88
2021/10/07 04:41:06;;;;;;;4.00;2.80;;;18.20;51.60;;;;;;5032150;28;20556;-88
2021/10/07 04:43:33;;;;;;;6.10;2.67;;;18.40;49.60;;;;;;5034881;28;20939;-88
2021/10/07 04:46:02;;;;;;;5.27;2.80;;;18.30;50.70;;;;;;5036429;28;20539;-88
2021/10/07 04:48:29;;;;;;;3.60;2.73;;;18.40;48.20;;;;;;5020780;28;20485;-88
2021/10/07 04:50:56;;;;;;;5.80;2.73;;;18.30;48.30;;;;;;5000347;28;20521;-88
2021/10/07 04:53:23;;;;;;;3.73;2.33;;;18.10;48.60;;;;;;5026908;28;20457;-88
2021/10/07 04:55:54;;;;;;;2.77;2.50;;;18.40;50.20;;;;;;5035107;28;20505;-88
2021/10/07 04:58:21;;;;;;;6.17;3.20;;;18.40;50.20;;;;;;5034850;28;20551;-88
2021/10/07 05:00:48;;;;;;;6.20;2.67;;;18.20;48.00;;;;;;5034777;28;20477;-89
2021/10/07 05:03:17;;;;;;;6.13;3.00;;;17.90;49.80;;;;;;5020210;28;20524;-88
2021/10/07 05:05:44;;;;;;;7.63;2.90;;;17.90;51.30;;;;;;5001931;28;20494;-88
2021/10/07 05:08:11;;;;;;;4.17;2.50;;;18.20;51.20;;;;;;4995309;28;20478;-88
2021/10/07 05:10:39;;;;;;;8.83;3.00;;;18.40;51.00;;;;;;5022730;28;20465;-87
2021/10/07 05:13:06;;;;;;;4.33;2.87;;;18.20;48.10;;;;;;5034563;28;20480;-87
2021/10/07 05:15:33;;;;;;;3.83;2.57;;;18.30;50.10;;;;;;5021042;28;20526;-87
2021/10/07 05:18:00;;;;;;;8.27;2.57;;;18.40;49.90;;;;;;5015440;28;20529;-87
2021/10/07 05:20:28;;;;;;;2.53;2.20;;;18.40;50.20;;;;;;5002333;28;20482;-87
2021/10/07 05:22:55;;;;;;;8.30;2.57;;;18.60;50.40;;;;;;4995455;28;20483;-87
2021/10/07 05:25:22;;;;;;;5.33;2.47;;;18.90;50.10;;;;;;4995901;28;20585;-88
2021/10/07 05:27:49;;;;;;;5.13;2.83;;;18.90;50.70;;;;;;4996575;28;20560;-87
2021/10/07 05:30:16;;;;;;;4.20;2.60;;;18.90;49.20;;;;;;4995675;28;20495;-87
2021/10/07 05:32:43;;;;;;;6.03;2.73;;;19.00;49.80;;;;;;4995183;28;20505;-87
2021/10/07 05:35:10;;;;;;;4.57;2.60;;;18.90;49.30;;;;;;4995880;28;20498;-88
2021/10/07 05:37:38;;;;;;;7.27;2.93;;;19.00;49.40;;;;;;4995833;28;20487;-87
2021/10/07 05:40:06;;;;;;;4.67;2.47;;;19.00;47.50;;;;;;4996323;28;20478;-87
2021/10/07 05:42:33;;;;;;;3.13;2.43;;;18.70;49.10;;;;;;5019791;28;20548;-88
2021/10/07 05:45:00;;;;;;;5.73;2.70;;;18.80;50.30;;;;;;5034794;28;20512;-89
2021/10/07 05:47:27;;;;;;;3.93;2.73;;;18.80;49.60;;;;;;5034798;28;20433;-88
2021/10/07 05:49:54;;;;;;;2.93;2.40;;;18.90;49.70;;;;;;5022038;28;20836;-89
2021/10/07 05:52:21;;;;;;;5.13;2.73;;;18.90;49.40;;;;;;5003543;28;20848;-88
2021/10/07 05:54:49;;;;;;;5.47;3.17;;;18.90;48.30;;;;;;5006782;28;20561;-88
2021/10/07 05:57:17;;;;;;;4.50;2.90;;;18.90;48.70;;;;;;5014446;28;20470;-89
2021/10/07 05:59:44;;;;;;;3.70;2.57;;;18.80;47.60;;;;;;5014514;28;20478;-88
2021/10/07 06:02:11;;;;;;;4.00;2.80;;;18.60;48.80;;;;;;5014884;28;20498;-88
2021/10/07 06:04:37;;;;;;;6.30;2.50;;;18.60;49.10;;;;;;5026602;28;21052;-88
2021/10/07 06:07:05;;;;;;;5.20;2.50;;;18.70;49.70;;;;;;5022549;28;20810;-88
2021/10/07 06:09:32;;;;;;;7.50;2.60;;;18.80;49.60;;;;;;5003728;28;20451;-88
2021/10/07 06:12:00;;;;;;;6.00;3.17;;;18.80;49.50;;;;;;4995171;28;20521;-88
2021/10/07 06:14:27;;;;;;;4.10;2.87;;;18.40;46.70;;;;;;4995654;28;20451;-88
2021/10/07 06:16:54;;;;;;;4.30;2.90;;;18.10;47.30;;;;;;4995518;28;20512;-89
2021/10/07 06:19:24;;;;;;;3.63;2.60;;;17.80;49.20;;;;;;4995535;28;20952;-89
2021/10/07 06:21:51;;;;;;;6.87;2.97;;;18.10;51.00;;;;;;4994729;28;20933;-89
2021/10/07 06:24:19;;;;;;;6.57;3.00;;;18.30;50.10;;;;;;5015180;28;20444;-88
2021/10/07 06:26:46;;;;;;;6.27;2.90;;;18.40;50.20;;;;;;5023594;28;20470;-88
2021/10/07 06:29:14;;;;;;;4.47;2.53;;;18.60;50.40;;;;;;5030331;28;20438;-89
2021/10/07 06:31:42;;;;;;;10.23;3.50;;;18.70;49.90;;;;;;5036754;28;20458;-88
2021/10/07 06:34:08;;;;;;;8.50;4.27;;;18.80;49.60;;;;;;5036243;28;20450;-88
2021/10/07 06:36:37;;;;;;;7.07;2.83;;;18.60;47.90;;;;;;5035781;28;20422;-85
2021/10/07 06:39:06;;;;;;;3.40;2.83;;;18.40;50.20;;;;;;5035612;28;20596;-85
2021/10/07 06:41:33;;;;;;;9.33;3.00;;;18.30;48.40;;;;;;5035963;28;20469;-90
2021/10/07 06:44:00;;;;;;;7.63;2.60;;;18.00;49.20;;;;;;5046234;28;20523;-84
2021/10/07 06:46:29;;;;;;;4.00;2.50;;;17.80;50.80;;;;;;5054703;28;20492;-89
2021/10/07 06:48:56;;;;;;;5.70;2.70;;;18.00;50.80;;;;;;5038682;28;20449;-89
2021/10/07 06:51:23;;;;;;;4.80;2.80;;;18.20;49.40;;;;;;5037913;28;20535;-88
2021/10/07 06:53:53;;;;;;;6.73;2.63;;;18.30;50.10;;;;;;5035564;28;20442;-89
2021/10/07 06:56:21;;;;;;;2.97;2.33;;;18.60;50.40;;;;;;5027887;28;20454;-89
2021/10/07 06:58:52;;;;;;;3.90;2.80;;;18.80;49.50;;;;;;5015322;28;20481;-89
2021/10/07 07:01:19;;;;;;;4.90;2.63;;;19.10;50.30;;;;;;5025165;28;20488;-88
2021/10/07 07:03:48;;;;;;;4.60;2.20;;;19.10;49.20;;;;;;5035437;28;20946;-88
2021/10/07 07:06:15;;;;;;;4.90;2.87;;;19.20;48.80;;;;;;5033320;28;20819;-88
2021/10/07 07:08:41;;;;;;;11.30;5.00;;;19.30;47.60;;;;;;5033341;28;20848;-88
2021/10/07 07:11:08;;;;;;;5.00;2.70;;;19.20;48.80;;;;;;5033916;28;20496;-88
2021/10/07 07:13:35;;;;;;;5.63;2.80;;;19.30;48.50;;;;;;5034457;28;20515;-88
2021/10/07 07:16:02;;;;;;;3.40;2.40;;;18.90;47.80;;;;;;5026396;28;20659;-88
2021/10/07 07:18:30;;;;;;;4.67;2.43;;;18.80;48.00;;;;;;5014605;28;20550;-88
2021/10/07 07:20:58;;;;;;;5.10;2.70;;;18.60;45.60;;;;;;5022556;28;20473;-88
2021/10/07 07:23:25;;;;;;;7.63;4.37;;;18.50;48.40;;;;;;5033719;28;20581;-88
2021/10/07 07:25:52;;;;;;;4.97;2.63;;;18.70;49.30;;;;;;5034015;28;20555;-88
2021/10/07 07:28:19;;;;;;;5.07;2.60;;;19.00;47.80;;;;;;5025740;28;20450;-88
2021/10/07 07:30:48;;;;;;;20.67;2.57;;;18.80;44.60;;;;;;5021342;28;20479;-88
2021/10/07 07:33:16;;;;;;;6.93;2.77;;;18.60;47.00;;;;;;5026253;28;20462;-88
2021/10/07 07:35:43;;;;;;;3.93;2.77;;;18.90;48.70;;;;;;5014060;28;20982;-88
2021/10/07 07:38:11;;;;;;;4.73;2.50;;;19.00;45.30;;;;;;5014221;28;20482;-89
2021/10/07 07:40:38;;;;;;;10.50;3.10;;;18.80;47.00;;;;;;5021216;28;20532;-88
2021/10/07 07:43:05;;;;;;;6.13;3.00;;;19.00;47.50;;;;;;5033539;28;20460;-88
2021/10/07 07:45:32;;;;;;;6.17;3.27;;;18.90;45.50;;;;;;5035425;28;20477;-88
2021/10/07 07:47:59;;;;;;;2.27;2.10;;;18.90;47.20;;;;;;5035026;28;20535;-88
2021/10/07 07:50:27;;;;;;;4.90;2.40;;;18.80;47.00;;;;;;5033482;28;20480;-88
2021/10/07 07:52:54;;;;;;;5.80;3.00;;;18.50;46.60;;;;;;5033238;28;20534;-89
2021/10/07 07:55:23;;;;;;;6.77;2.97;;;18.50;45.60;;;;;;5033805;28;20457;-88
2021/10/07 07:57:51;;;;;;;4.80;2.50;;;18.40;44.50;;;;;;5033550;28;20519;-88
2021/10/07 08:00:18;;;;;;;11.53;3.10;;;18.50;47.30;;;;;;5026788;28;20533;-87
2021/10/07 08:02:45;;;;;;;3.27;2.40;;;18.90;47.50;;;;;;5013541;28;20454;-85
2021/10/07 08:05:14;;;;;;;4.97;2.90;;;19.20;47.50;;;;;;5013115;28;20474;-86
2021/10/07 08:07:42;;;;;;;3.03;2.50;;;19.30;44.70;;;;;;5013415;28;20519;-86
2021/10/07 08:10:11;;;;;;;4.33;2.50;;;19.10;43.70;;;;;;5013568;28;20517;-87
2021/10/07 08:12:40;;;;;;;5.50;3.40;;;18.90;43.60;;;;;;5013466;28;20450;-86
2021/10/07 08:15:09;;;;;;;5.50;3.60;;;18.60;43.90;;;;;;5013105;28;20537;-86
2021/10/07 08:17:36;;;;;;;5.43;3.10;;;18.30;44.60;;;;;;5013358;28;20453;-86
2021/10/07 08:20:05;;;;;;;6.47;3.10;;;17.70;46.10;;;;;;5009118;28;20490;-86
2021/10/07 08:22:32;;;;;;;13.00;3.07;;;17.50;47.80;;;;;;5011893;28;20484;-87
2021/10/07 08:24:59;;;;;;;10.80;3.50;;;17.10;47.60;;;;;;5036605;28;20456;-87
2021/10/07 08:27:26;;;;;;;9.10;2.97;;;17.10;47.80;;;;;;5029185;28;20465;-86
2021/10/07 08:29:55;;;;;;;5.07;3.50;;;16.90;47.70;;;;;;5016669;28;20782;-87
2021/10/07 08:32:22;;;;;;;19.93;3.80;;;16.50;48.40;;;;;;5017386;28;20458;-86
2021/10/07 08:34:50;;;;;;;6.60;3.67;;;16.50;48.50;;;;;;5023553;28;20495;-87
2021/10/07 08:37:17;;;;;;;6.87;3.40;;;16.60;48.40;;;;;;5036486;28;20433;-86
2021/10/07 08:39:44;;;;;;;4.23;3.40;;;16.70;48.70;;;;;;5036450;28;20580;-87
2021/10/07 08:42:11;;;;;;;9.33;3.80;;;16.80;48.50;;;;;;5029948;28;20454;-87
2021/10/07 08:44:38;;;;;;;9.47;4.17;;;17.20;48.50;;;;;;5015923;28;20438;-86
2021/10/07 08:47:06;;;;;;;12.20;4.27;;;17.50;46.70;;;;;;5027743;28;20437;-87
2021/10/07 08:49:37;;;;;;;6.90;3.90;;;17.40;46.50;;;;;;5050835;28;20476;-87
2021/10/07 08:52:05;;;;;;;6.60;3.67;;;17.50;46.30;;;;;;5055074;28;20469;-87
2021/10/07 08:54:34;;;;;;;7.57;3.93;;;17.50;47.10;;;;;;5048194;28;20446;-86
2021/10/07 08:57:01;;;;;;;4.50;4.00;;;17.60;46.20;;;;;;5024713;28;20903;-86
2021/10/07 08:59:28;;;;;;;6.53;3.90;;;17.60;45.60;;;;;;5036663;28;20489;-86
2021/10/07 09:01:57;;;;;;;6.50;3.70;;;17.30;46.50;;;;;;5038851;28;20487;-87
2021/10/07 09:04:27;;;;;;;5.50;3.33;;;16.70;46.30;;;;;;5052189;28;20437;-87
2021/10/07 09:06:55;;;;;;;6.80;3.30;;;16.60;47.70;;;;;;5051983;28;20472;-87
2021/10/07 09:09:23;;;;;;;8.40;3.37;;;16.80;47.80;;;;;;5051852;28;20441;-87
2021/10/07 09:11:53;;;;;;;8.10;3.50;;;17.30;47.80;;;;;;5053780;28;20445;-87
2021/10/07 09:14:25;;;;;;;12.47;3.80;;;17.60;45.60;;;;;;5052050;28;20486;-87
2021/10/07 09:16:53;;;;;;;6.43;3.37;;;17.50;45.70;;;;;;5037679;28;20891;-87
2021/10/07 09:19:23;;;;;;;8.30;3.50;;;17.60;47.00;;;;;;5035989;28;20942;-86
2021/10/07 09:21:54;;;;;;;7.33;3.33;;;18.10;45.40;;;;;;5045011;28;20487;-86
2021/10/07 09:24:38;;;;;;;8.63;3.83;;;17.90;45.10;;;;;;5051936;28;20430;-88
2021/10/07 09:27:08;;;;;;;4.80;3.70;;;17.90;46.80;;;;;;5052029;28;20476;-86
2021/10/07 09:29:49;;;;;;;4.83;2.90;;;18.30;45.20;;;;;;5050572;28;20533;-87
2021/10/07 09:32:25;;;;;;;6.77;3.87;;;18.50;44.10;;;;;;5036108;28;20445;-87
2021/10/07 09:34:52;;;;;;;12.60;3.37;;;18.30;43.00;;;;;;5035919;28;20491;-87
2021/10/07 09:37:32;;;;;;;5.30;3.53;;;18.40;44.70;;;;;;5035728;28;20429;-87
2021/10/07 09:40:03;;;;;;;5.33;3.87;;;18.50;43.10;;;;;;5035874;28;20477;-86
2021/10/07 09:42:33;;;;;;;6.33;3.70;;;18.00;44.20;;;;;;5035588;28;20445;-88
2021/10/07 09:45:16;;;;;;;17.23;3.70;;;17.80;46.10;;;;;;5035657;28;20472;-87
2021/10/07 09:47:45;;;;;;;5.47;3.23;;;18.20;43.80;;;;;;5033010;28;20509;-86
2021/10/07 09:50:22;;;;;;;6.83;3.57;;;18.40;43.10;;;;;;5035154;28;20504;-86
2021/10/07 09:53:02;;;;;;;7.70;3.93;;;18.30;43.00;;;;;;5035526;28;20485;-86
2021/10/07 09:55:34;;;;;;;5.60;3.77;;;18.70;44.40;;;;;;5034750;28;20487;-87
2021/10/07 09:58:02;;;;;;;5.30;3.33;;;18.70;42.30;;;;;;5015599;28;20611;-87
2021/10/07 10:00:34;;;;;;;8.13;3.80;;;18.60;43.30;;;;;;5014465;28;20564;-87
2021/10/07 10:03:02;;;;;;;3.80;3.53;;;18.60;43.10;;;;;;5015990;28;20434;-87
2021/10/07 10:05:31;;;;;;;4.53;3.53;;;19.00;43.30;;;;;;5015784;28;20881;-88
2021/10/07 10:08:00;;;;;;;5.63;3.07;;;18.80;41.10;;;;;;5017054;28;20430;-87
2021/10/07 10:10:28;;;;;;;7.60;3.50;;;17.50;43.30;;;;;;5036587;28;21032;-87
2021/10/07 10:12:56;;;;;;;5.73;3.57;;;17.50;44.90;;;;;;5039426;28;20433;-87
2021/10/07 10:15:23;;;;;;;8.70;3.90;;;17.80;43.80;;;;;;5034617;28;20429;-87
2021/10/07 10:17:51;;;;;;;6.07;3.90;;;18.20;42.90;;;;;;5034494;28;20499;-86
2021/10/07 10:20:21;;;;;;;4.50;3.10;;;18.40;43.10;;;;;;5034191;28;20983;-87
2021/10/07 10:22:52;;;;;;;5.43;3.40;;;18.70;42.60;;;;;;5035381;28;20481;-87
2021/10/07 10:25:21;;;;;;;5.70;3.40;;;18.90;41.90;;;;;;5035081;28;20818;-86
2021/10/07 10:27:55;;;;;;;5.67;3.90;;;19.30;43.00;;;;;;5033924;28;20473;-87
2021/10/07 10:30:26;;;;;;;7.37;3.97;;;19.40;40.60;;;;;;5034490;28;20469;-87
2021/10/07 10:32:54;;;;;;;6.33;3.63;;;19.50;40.00;;;;;;5033046;28;20565;-87
2021/10/07 10:35:40;;;;;;;6.50;3.30;;;19.30;41.50;;;;;;5034810;28;20457;-88
2021/10/07 10:38:12;;;;;;;8.57;3.67;;;18.90;41.20;;;;;;5034573;28;20548;-87
2021/10/07 10:40:40;;;;;;;7.30;3.50;;;19.10;41.30;;;;;;5034180;28;20899;-87
2021/10/07 10:43:30;;;;;;;9.20;3.50;;;19.40;39.90;;;;;;5033559;28;20445;-87
2021/10/07 10:46:15;;;;;;;7.47;3.77;;;18.50;40.70;;;;;;5034530;28;20433;-87
2021/10/07 10:49:03;;;;;;;5.50;3.37;;;18.30;42.60;;;;;;5034893;28;20445;-88
2021/10/07 10:51:36;;;;;;;4.50;3.00;;;18.40;42.80;;;;;;5030054;28;20469;-87
2021/10/07 10:54:08;;;;;;;4.63;3.30;;;18.30;41.70;;;;;;5023152;28;20512;-87
2021/10/07 10:56:55;;;;;;;3.30;2.43;;;18.40;41.10;;;;;;5015149;28;20454;-87
2021/10/07 10:59:23;;;;;;;10.23;3.67;;;18.30;43.10;;;;;;5014244;28;20478;-87
2021/10/07 11:02:25;;;;;;;3.50;2.80;;;18.80;40.10;;;;;;5014343;28;20461;-86
2021/10/07 11:04:54;;;;;;;5.47;3.53;;;19.10;39.40;;;;;;4953469;29;20456;-87
2021/10/07 11:07:23;;;;;;;5.23;3.20;;;19.10;41.30;;;;;;4953641;29;20468;-89
2021/10/07 11:10:01;;;;;;;4.13;3.37;;;19.30;40.90;;;;;;4953284;29;20455;-88
2021/10/07 11:12:41;;;;;;;4.27;3.27;;;19.50;42.00;;;;;;4953350;29;20487;-89
2021/10/07 11:15:09;;;;;;;5.83;3.33;;;19.50;39.60;;;;;;4953698;29;20898;-88
2021/10/07 11:17:36;;;;;;;5.50;3.10;;;18.70;40.30;;;;;;4954123;29;20599;-87
2021/10/07 11:20:04;;;;;;;6.80;3.50;;;18.30;42.90;;;;;;4953654;29;20493;-88
2021/10/07 11:22:31;;;;;;;5.90;3.37;;;18.50;42.40;;;;;;4953827;29;20460;-87
2021/10/07 11:24:59;;;;;;;5.37;3.50;;;18.80;39.40;;;;;;4957991;28;20456;-87
2021/10/07 11:27:39;;;;;;;4.53;3.03;;;18.40;41.00;;;;;;4972808;28;20444;-88
2021/10/07 11:30:09;;;;;;;4.73;3.53;;;18.20;44.30;;;;;;4972186;28;20515;-88
2021/10/07 11:32:36;;;;;;;4.00;3.47;;;18.70;41.90;;;;;;4972787;28;20447;-88
2021/10/07 11:35:06;;;;;;;3.50;3.07;;;18.60;41.80;;;;;;4984839;28;20429;-87
2021/10/07 11:37:57;;;;;;;5.17;3.30;;;18.40;41.20;;;;;;5032806;28;20791;-87
2021/10/07 11:40:27;;;;;;;5.20;3.27;;;17.60;42.30;;;;;;5032860;28;20492;-88
2021/10/07 11:42:56;;;;;;;5.63;3.23;;;17.40;42.80;;;;;;5033502;28;20812;-87
2021/10/07 11:45:25;;;;;;;5.57;3.63;;;17.80;42.50;;;;;;5033525;28;20457;-87
2021/10/07 11:47:53;;;;;;;5.97;3.80;;;17.90;42.70;;;;;;5033184;28;20484;-88
2021/10/07 11:50:22;;;;;;;5.27;3.97;;;17.80;43.30;;;;;;5033193;28;20503;-88
2021/10/07 11:52:50;;;;;;;4.40;3.87;;;18.40;43.10;;;;;;5021683;28;20811;-87
2021/10/07 11:55:19;;;;;;;8.10;3.73;;;18.20;42.80;;;;;;5017584;28;20454;-87
2021/10/07 11:57:50;;;;;;;4.50;3.53;;;17.50;44.40;;;;;;5017243;28;20529;-87
2021/10/07 12:00:33;;;;;;;5.23;3.80;;;18.10;43.70;;;;;;5004850;28;20522;-88
2021/10/07 12:03:15;;;;;;;7.70;3.57;;;18.50;43.10;;;;;;4996931;28;20419;-89
2021/10/07 12:05:44;;;;;;;5.43;3.50;;;18.40;41.60;;;;;;4997480;28;20458;-88
2021/10/07 12:08:13;;;;;;;4.60;2.93;;;17.70;43.10;;;;;;4997146;28;20526;-88
2021/10/07 12:10:42;;;;;;;5.07;3.40;;;18.10;43.10;;;;;;4997356;28;20991;-88
2021/10/07 12:13:14;;;;;;;5.00;3.07;;;18.30;42.30;;;;;;4997645;28;20530;-88
2021/10/07 12:15:47;;;;;;;4.90;3.80;;;17.90;42.40;;;;;;4996742;28;20542;-87
2021/10/07 12:18:15;;;;;;;4.70;3.00;;;18.00;42.70;;;;;;4996683;28;20527;-88
2021/10/07 12:20:55;;;;;;;5.10;3.50;;;18.00;43.90;;;;;;5030778;28;20485;-88
2021/10/07 12:23:22;;;;;;;6.53;3.70;;;18.50;42.10;;;;;;5036165;28;20587;-88
2021/10/07 12:25:55;;;;;;;7.10;4.23;;;18.30;43.00;;;;;;5036195;28;20532;-87
2021/10/07 12:28:22;;;;;;;14.97;4.13;;;18.50;43.10;;;;;;5036026;28;20497;-87
2021/10/07 12:30:53;;;;;;;5.40;3.90;;;18.00;42.70;;;;;;5036338;28;20499;-87
2021/10/07 12:33:20;;;;;;;5.63;3.67;;;17.80;43.50;;;;;;5017545;28;20478;-87
2021/10/07 12:36:02;;;;;;;5.60;3.87;;;17.70;44.30;;;;;;5017865;28;20450;-88
2021/10/07 12:38:30;;;;;;;11.03;4.30;;;18.00;43.70;;;;;;5017517;28;20529;-87
2021/10/07 12:41:00;;;;;;;4.60;4.00;;;18.10;43.50;;;;;;5016141;28;20521;-87
2021/10/07 12:43:28;;;;;;;5.60;3.90;;;17.80;43.60;;;;;;5016169;28;20525;-87
2021/10/07 12:46:11;;;;;;;8.40;3.87;;;17.10;45.70;;;;;;5016553;28;20454;-87
2021/10/07 12:49:04;;;;;;;7.27;3.83;;;17.40;45.20;;;;;;5016609;28;20457;-87
2021/10/07 12:51:35;;;;;;;8.73;3.87;;;17.50;44.80;;;;;;5021557;28;20556;-87
2021/10/07 12:54:02;;;;;;;6.03;3.60;;;17.10;45.50;;;;;;5036159;28;20973;-87
2021/10/07 12:56:30;;;;;;;5.63;3.57;;;16.80;46.30;;;;;;5037113;28;20527;-86